createdAt,value
2019-03-01T00:00:13.298Z,68.18
2019-03-01T00:01:23.412Z,68.38
2019-03-01T00:02:33.528Z,68.09
2019-03-01T00:03:43.633Z,68.28
2019-03-01T00:04:53.760Z,68.38
2019-03-01T00:06:03.877Z,68.38
2019-03-01T00:07:13.989Z,68.38
2019-03-01T00:08:24.320Z,68.38
2019-03-01T00:09:34.441Z,68.09
2019-03-01T00:10:44.555Z,68.09
2019-03-01T00:11:54.672Z,68.38
2019-03-01T00:13:04.791Z,68.18
2019-03-01T00:14:14.911Z,67.9
2019-03-01T00:15:25.045Z,68.28
2019-03-01T00:16:35.411Z,68.47
2019-03-01T00:17:45.542Z,67.99
2019-03-01T00:18:55.665Z,67.9
2019-03-01T00:20:05.790Z,68.38
2019-03-01T00:21:15.660Z,68.76
2019-03-01T00:22:25.784Z,68.85
2019-03-01T00:23:35.907Z,68.38
2019-03-01T00:24:46.005Z,68.85
2019-03-01T00:25:56.139Z,68.82
2019-03-01T00:27:06.240Z,69.2
2019-03-01T00:28:16.347Z,68.85
2019-03-01T00:29:26.470Z,69.39
2019-03-01T00:30:36.328Z,69.33
2019-03-01T00:31:46.453Z,68.72
2019-03-01T00:32:56.577Z,68.95
2019-03-01T00:34:07.709Z,69.14
2019-03-01T00:35:17.825Z,68.95
2019-03-01T00:36:27.946Z,68.95
2019-03-01T00:37:37.807Z,68.95
2019-03-01T00:38:47.935Z,69.1
2019-03-01T00:39:58.061Z,69.1
2019-03-01T00:41:08.248Z,69.48
2019-03-01T00:42:18.357Z,69.2
2019-03-01T00:43:28.473Z,69.29
2019-03-01T00:44:38.584Z,69.2
2019-03-01T00:45:50.762Z,69.1
2019-03-01T00:47:00.863Z,69.01
2019-03-01T00:48:10.966Z,69.2
2019-03-01T00:49:20.810Z,69.1
2019-03-01T00:50:30.665Z,69.1
2019-03-01T00:51:40.771Z,69.29
2019-03-01T00:52:50.873Z,69.2
2019-03-01T00:54:00.646Z,69.2
2019-03-01T00:55:10.768Z,69.1
2019-03-01T00:56:20.891Z,69.68
2019-03-01T00:57:31.017Z,69.64
2019-03-01T00:58:41.122Z,70.06
2019-03-01T00:59:51.249Z,70.53
2019-03-01T01:01:01.412Z,70.06
2019-03-01T01:02:11.535Z,70.06
2019-03-01T01:03:21.656Z,70.15
2019-03-01T01:04:31.759Z,70.15
2019-03-01T01:05:41.869Z,70.25
2019-03-01T01:06:51.974Z,69.93
2019-03-01T01:08:02.097Z,69.93
2019-03-01T01:09:12.221Z,69.83
2019-03-01T01:10:22.327Z,70.21
2019-03-01T01:11:32.441Z,70.5
2019-03-01T01:12:42.560Z,70.78
2019-03-01T01:13:52.667Z,70.59
2019-03-01T01:15:02.855Z,70.59
2019-03-01T01:16:12.963Z,70.59
2019-03-01T01:17:23.137Z,70.97
2019-03-01T01:18:33.248Z,70.88
2019-03-01T01:19:43.358Z,71.26
2019-03-01T01:20:53.464Z,71.07
2019-03-01T01:22:03.572Z,70.88
2019-03-01T01:23:13.675Z,71.17
2019-03-01T01:24:23.809Z,71.17
2019-03-01T01:25:33.923Z,70.88
2019-03-01T01:26:44.022Z,71.26
2019-03-01T01:27:54.131Z,71.36
2019-03-01T01:29:04.232Z,71.64
2019-03-01T01:30:14.373Z,71.73
2019-03-01T01:31:24.494Z,71.93
2019-03-01T01:32:34.598Z,72.88
2019-03-01T01:33:44.699Z,72.88
2019-03-01T01:34:54.834Z,73.17
2019-03-01T01:36:04.974Z,73.36
2019-03-01T01:37:15.125Z,73.93
2019-03-01T01:38:24.978Z,73.83
2019-03-01T01:39:35.084Z,73.26
2019-03-01T01:40:45.183Z,73.41
2019-03-01T01:41:55.061Z,74.08
2019-03-01T01:43:04.808Z,73.7
2019-03-01T01:44:14.907Z,74.65
2019-03-01T01:45:25.010Z,74.46
2019-03-01T01:46:35.146Z,74.37
2019-03-01T01:47:45.271Z,74.69
2019-03-01T01:48:55.387Z,74.94
2019-03-01T01:50:05.524Z,74.65
2019-03-01T01:51:15.652Z,74.56
2019-03-01T01:52:25.791Z,74.65
2019-03-01T01:53:35.917Z,74.84
2019-03-01T01:54:46.045Z,74.84
2019-03-01T01:55:56.151Z,74.94
2019-03-01T01:57:06.262Z,75.13
2019-03-01T01:58:16.375Z,75.13
2019-03-01T01:59:26.235Z,75.13
2019-03-01T02:00:36.341Z,75.23
2019-03-01T02:01:46.458Z,75.32
2019-03-01T02:02:56.588Z,75.42
2019-03-01T02:04:06.696Z,75.13
2019-03-01T02:05:16.810Z,75.13
2019-03-01T02:06:26.915Z,75.32
2019-03-01T02:07:37.055Z,75.51
2019-03-01T02:08:47.193Z,75.99
2019-03-01T02:09:57.310Z,76.37
2019-03-01T02:11:07.434Z,76.65
2019-03-01T02:12:17.302Z,76.27
2019-03-01T02:13:27.457Z,76.56
2019-03-01T02:14:37.581Z,76.08
2019-03-01T02:15:47.699Z,76.37
2019-03-01T02:16:57.821Z,76.56
2019-03-01T02:18:07.940Z,76.65
2019-03-01T02:19:18.037Z,76.65
2019-03-01T02:20:28.204Z,76.37
2019-03-01T02:21:38.315Z,76.18
2019-03-01T02:22:48.407Z,76.08
2019-03-01T02:23:58.537Z,76.46
2019-03-01T02:25:08.660Z,76.27
2019-03-01T02:26:18.775Z,76.37
2019-03-01T02:27:28.908Z,76.56
2019-03-01T02:28:39.013Z,76.56
2019-03-01T02:29:49.131Z,76.84
2019-03-01T02:30:58.881Z,76.94
2019-03-01T02:32:09.006Z,76.84
2019-03-01T02:33:19.122Z,76.84
2019-03-01T02:34:29.311Z,76.9
2019-03-01T02:35:39.425Z,77.32
2019-03-01T02:36:49.278Z,77.42
2019-03-01T02:37:59.390Z,77.03
2019-03-01T02:39:09.516Z,77.19
2019-03-01T02:40:19.654Z,77.28
2019-03-01T02:41:29.770Z,77.28
2019-03-01T02:42:39.941Z,77.47
2019-03-01T02:43:50.085Z,76.9
2019-03-01T02:45:00.346Z,77.37
2019-03-01T02:46:10.507Z,77.51
2019-03-01T02:47:20.638Z,77.66
2019-03-01T02:48:30.520Z,77.7
2019-03-01T02:49:40.649Z,78.08
2019-03-01T02:50:50.765Z,77.8
2019-03-01T02:52:00.904Z,77.89
2019-03-01T02:53:11.008Z,78.27
2019-03-01T02:54:20.524Z,78.17
2019-03-01T02:55:30.873Z,78.17
2019-03-01T02:56:40.733Z,78.17
2019-03-01T02:57:50.842Z,78.27
2019-03-01T02:59:00.971Z,77.98
2019-03-01T03:00:10.823Z,78.17
2019-03-01T03:01:20.933Z,77.98
2019-03-01T03:02:31.048Z,78.08
2019-03-01T03:03:41.157Z,78.08
2019-03-01T03:04:51.265Z,78.17
2019-03-01T03:06:01.391Z,78.17
2019-03-01T03:07:11.520Z,78.17
2019-03-01T03:08:21.972Z,77.89
2019-03-01T03:09:32.413Z,78.37
2019-03-01T03:10:42.530Z,78.17
2019-03-01T03:11:52.646Z,77.89
2019-03-01T03:13:02.768Z,77.89
2019-03-01T03:14:13.138Z,78.17
2019-03-01T03:15:23.242Z,78.17
2019-03-01T03:16:33.103Z,78.27
2019-03-01T03:17:43.243Z,78.27
2019-03-01T03:18:53.361Z,78.27
2019-03-01T03:20:03.473Z,78.37
2019-03-01T03:21:13.614Z,78.46
2019-03-01T03:22:23.743Z,78.37
2019-03-01T03:23:33.595Z,78.17
2019-03-01T03:24:43.733Z,78.65
2019-03-01T03:25:54.046Z,78.56
2019-03-01T03:27:04.170Z,78.08
2019-03-01T03:28:14.343Z,78.08
2019-03-01T03:29:24.527Z,78.37
2019-03-01T03:30:34.671Z,78.17
2019-03-01T03:31:44.840Z,77.89
2019-03-01T03:32:55.008Z,77.7
2019-03-01T03:34:04.931Z,78.17
2019-03-01T03:35:15.193Z,78.27
2019-03-01T03:36:25.395Z,78.17
2019-03-01T03:37:35.313Z,77.98
2019-03-01T03:38:45.491Z,77.98
2019-03-01T03:39:55.603Z,77.89
2019-03-01T03:41:05.791Z,77.89
2019-03-01T03:42:15.900Z,78.27
2019-03-01T03:43:26.003Z,77.89
2019-03-01T03:44:36.118Z,77.89
2019-03-01T03:45:46.224Z,77.89
2019-03-01T03:46:56.368Z,78.17
2019-03-01T03:48:06.533Z,77.7
2019-03-01T03:49:16.800Z,77.7
2019-03-01T03:50:26.936Z,78.08
2019-03-01T03:51:37.060Z,78.17
2019-03-01T03:52:47.182Z,77.98
2019-03-01T03:53:57.340Z,78.56
2019-03-01T03:55:07.435Z,77.98
2019-03-01T03:56:17.560Z,78.27
2019-03-01T03:57:27.682Z,78.17
2019-03-01T03:58:37.806Z,77.95
2019-03-01T03:59:47.931Z,78.14
2019-03-01T04:00:58.070Z,77.95
2019-03-01T04:02:08.207Z,78.33
2019-03-01T04:03:18.311Z,77.98
2019-03-01T04:04:28.430Z,78.46
2019-03-01T04:05:38.545Z,77.98
2019-03-01T04:06:48.678Z,78.42
2019-03-01T04:07:58.801Z,78.85
2019-03-01T04:09:08.905Z,78.52
2019-03-01T04:10:19.059Z,78.33
2019-03-01T04:11:29.222Z,78.61
2019-03-01T04:12:39.362Z,78.99
2019-03-01T04:13:49.519Z,79.19
2019-03-01T04:14:59.675Z,79.09
2019-03-01T04:16:09.790Z,79.38
2019-03-01T04:17:19.889Z,79.47
2019-03-01T04:18:29.746Z,79.19
2019-03-01T04:19:39.850Z,79.75
2019-03-01T04:20:49.988Z,79.57
2019-03-01T04:22:00.157Z,79.38
2019-03-01T04:23:10.259Z,79.38
2019-03-01T04:24:20.008Z,79.47
2019-03-01T04:25:30.191Z,79.75
2019-03-01T04:26:40.341Z,79.66
2019-03-01T04:27:50.445Z,79.66
2019-03-01T04:29:01.405Z,79.85
2019-03-01T04:30:11.609Z,79.57
2019-03-01T04:31:21.731Z,79.8
2019-03-01T04:32:31.882Z,79.7
2019-03-01T04:33:41.740Z,79.8
2019-03-01T04:34:51.905Z,79.32
2019-03-01T04:36:02.025Z,79.41
2019-03-01T04:37:12.153Z,79.03
2019-03-01T04:38:22.030Z,79.41
2019-03-01T04:39:33.138Z,79.22
2019-03-01T04:40:43.267Z,79.51
2019-03-01T04:41:53.378Z,79.51
2019-03-01T04:43:03.480Z,79.32
2019-03-01T04:44:13.579Z,79.28
2019-03-01T04:45:23.686Z,79.32
2019-03-01T04:46:33.787Z,79.38
2019-03-01T04:47:43.890Z,79.28
2019-03-01T04:48:54.004Z,79.47
2019-03-01T04:50:04.107Z,79.19
2019-03-01T04:51:14.240Z,79.19
2019-03-01T04:52:24.354Z,78.8
2019-03-01T04:53:34.490Z,79.09
2019-03-01T04:54:44.366Z,79.09
2019-03-01T04:55:54.489Z,78.9
2019-03-01T04:57:04.619Z,79.19
2019-03-01T04:58:14.513Z,79.38
2019-03-01T04:59:24.720Z,79.19
2019-03-01T05:00:34.862Z,78.94
2019-03-01T05:01:44.739Z,79.03
2019-03-01T05:02:54.888Z,79.03
2019-03-01T05:04:05.050Z,79.22
2019-03-01T05:05:15.254Z,79.03
2019-03-01T05:06:25.370Z,79.32
2019-03-01T05:07:35.530Z,79.32
2019-03-01T05:08:45.639Z,79.03
2019-03-01T05:09:55.848Z,79.32
2019-03-01T05:11:05.961Z,79.32
2019-03-01T05:12:16.074Z,79.32
2019-03-01T05:13:26.219Z,79.32
2019-03-01T05:14:36.081Z,79.03
2019-03-01T05:15:46.188Z,78.94
2019-03-01T05:16:56.293Z,78.75
2019-03-01T05:18:06.428Z,79.03
2019-03-01T05:19:16.594Z,78.65
2019-03-01T05:20:26.728Z,79.32
2019-03-01T05:21:38.209Z,79.22
2019-03-01T05:22:48.070Z,79.38
2019-03-01T05:23:58.221Z,78.85
2019-03-01T05:25:08.358Z,78.8
2019-03-01T05:26:18.505Z,78.8
2019-03-01T05:27:28.616Z,78.71
2019-03-01T05:28:38.503Z,78.9
2019-03-01T05:29:48.621Z,78.71
2019-03-01T05:30:58.774Z,79.28
2019-03-01T05:32:08.888Z,79.38
2019-03-01T05:33:18.993Z,79.66
2019-03-01T05:34:29.148Z,79.85
2019-03-01T05:35:39.280Z,80.33
2019-03-01T05:36:49.456Z,80.33
2019-03-01T05:37:59.580Z,80.42
2019-03-01T05:39:09.719Z,80.52
2019-03-01T05:40:19.839Z,80.61
2019-03-01T05:41:29.939Z,80.61
2019-03-01T05:42:40.063Z,80.18
2019-03-01T05:43:50.248Z,80.55
2019-03-01T05:45:00.582Z,81.13
2019-03-01T05:46:10.585Z,80.46
2019-03-01T05:47:20.733Z,80.75
2019-03-01T05:48:30.846Z,80.94
2019-03-01T05:49:40.966Z,80.84
2019-03-01T05:50:51.080Z,80.75
2019-03-01T05:52:01.209Z,80.65
2019-03-01T05:53:11.314Z,80.75
2019-03-01T05:54:21.432Z,80.75
2019-03-01T05:55:31.554Z,81.03
2019-03-01T05:56:41.650Z,81.13
2019-03-01T05:57:51.763Z,81.13
2019-03-01T05:59:01.862Z,81.03
2019-03-01T06:00:12.603Z,80.36
2019-03-01T06:01:22.719Z,80.75
2019-03-01T06:02:32.834Z,80.46
2019-03-01T06:03:42.939Z,80.46
2019-03-01T06:04:54.022Z,80.75
2019-03-01T06:06:04.194Z,80.55
2019-03-01T06:07:14.068Z,80.65
2019-03-01T06:08:24.163Z,80.36
2019-03-01T06:09:34.259Z,80.27
2019-03-01T06:10:44.372Z,80.55
2019-03-01T06:11:56.161Z,80.55
2019-03-01T06:13:06.421Z,80.27
2019-03-01T06:14:16.516Z,80.27
2019-03-01T06:15:26.636Z,80.27
2019-03-01T06:16:36.854Z,80.27
2019-03-01T06:17:47.982Z,80.27
2019-03-01T06:18:58.099Z,80.27
2019-03-01T06:20:08.211Z,80.27
2019-03-01T06:21:18.314Z,80.08
2019-03-01T06:22:28.409Z,80.22
2019-03-01T06:23:38.528Z,80.55
2019-03-01T06:24:48.633Z,80.36
2019-03-01T06:25:58.762Z,80.6
2019-03-01T06:27:08.880Z,80.98
2019-03-01T06:28:19.439Z,80.84
2019-03-01T06:29:29.539Z,81.23
2019-03-01T06:30:39.675Z,81.41
2019-03-01T06:31:59.319Z,82.18
2019-03-01T06:33:09.424Z,81.98
2019-03-01T06:34:19.541Z,82.08
2019-03-01T06:35:29.652Z,82.37
2019-03-01T06:36:39.413Z,82.84
2019-03-01T06:37:49.525Z,83.03
2019-03-01T06:38:59.663Z,82.84
2019-03-01T06:40:09.808Z,83.13
2019-03-01T06:41:19.912Z,83.41
2019-03-01T06:42:30.014Z,83.32
2019-03-01T06:43:40.139Z,83.32
2019-03-01T06:44:50.251Z,83.7
2019-03-01T06:46:00.365Z,83.98
2019-03-01T06:47:10.475Z,84.17
2019-03-01T06:48:20.588Z,84.08
2019-03-01T06:49:30.707Z,84.46
2019-03-01T06:50:40.817Z,84.46
2019-03-01T06:51:50.917Z,84.56
2019-03-01T06:53:01.040Z,84.36
2019-03-01T06:54:11.151Z,84.17
2019-03-01T06:55:21.041Z,84.46
2019-03-01T06:56:31.149Z,84.65
2019-03-01T06:57:41.264Z,84.56
2019-03-01T06:58:51.364Z,84.75
2019-03-01T07:00:01.485Z,85.03
2019-03-01T07:01:11.613Z,85.03
2019-03-01T07:02:21.726Z,84.84
2019-03-01T07:03:31.838Z,84.94
2019-03-01T07:04:41.958Z,84.94
2019-03-01T07:05:52.104Z,85.22
2019-03-01T07:07:10.825Z,85.6
2019-03-01T07:08:20.681Z,85.51
2019-03-01T07:09:30.804Z,85.6
2019-03-01T07:10:40.666Z,85.36
2019-03-01T07:11:50.838Z,85.41
2019-03-01T07:13:00.978Z,85.22
2019-03-01T07:14:11.101Z,85.36
2019-03-01T07:15:21.221Z,85.36
2019-03-01T07:16:31.326Z,85.74
2019-03-01T07:17:41.445Z,85.27
2019-03-01T07:18:51.558Z,85.46
2019-03-01T07:20:01.414Z,86.22
2019-03-01T07:21:11.740Z,86.41
2019-03-01T07:22:21.864Z,86.22
2019-03-01T07:23:39.150Z,86.41
2019-03-01T07:24:49.376Z,86.12
2019-03-01T07:25:59.485Z,86.69
2019-03-01T07:27:09.636Z,86.51
2019-03-01T07:28:20.194Z,87.36
2019-03-01T07:29:30.312Z,86.98
2019-03-01T07:30:40.492Z,87.07
2019-03-01T07:31:50.674Z,87.46
2019-03-01T07:33:00.776Z,87.27
2019-03-01T07:34:10.923Z,87.55
2019-03-01T07:35:21.054Z,87.74
2019-03-01T07:36:31.171Z,87.65
2019-03-01T07:37:41.272Z,87.74
2019-03-01T07:38:51.393Z,88.31
2019-03-01T07:40:01.280Z,88.22
2019-03-01T07:41:11.219Z,88.03
2019-03-01T07:42:21.343Z,88.7
2019-03-01T07:43:31.454Z,88.51
2019-03-01T07:44:41.560Z,88.6
2019-03-01T07:45:51.675Z,88.79
2019-03-01T07:47:02.182Z,88.51
2019-03-01T07:48:12.502Z,89.17
2019-03-01T07:49:22.647Z,89.17
2019-03-01T07:50:32.777Z,89.07
2019-03-01T07:51:42.894Z,89.07
2019-03-01T07:52:53.019Z,89.55
2019-03-01T07:54:08.760Z,89.07
2019-03-01T07:55:30.361Z,88.98
2019-03-01T07:56:42.479Z,89.17
2019-03-01T07:57:53.176Z,88.89
2019-03-01T07:59:03.627Z,89.07
2019-03-01T08:00:17.240Z,89.17
2019-03-01T08:01:29.061Z,89.55
2019-03-01T08:02:42.345Z,89.26
2019-03-01T08:03:55.709Z,89.65
2019-03-01T08:05:07.402Z,89.55
2019-03-01T08:06:19.437Z,89.17
2019-03-01T08:07:29.638Z,89.55
2019-03-01T08:08:42.239Z,89.94
2019-03-01T08:09:54.110Z,89.75
2019-03-01T08:11:04.408Z,90.31
2019-03-01T08:12:15.396Z,90.7
2019-03-01T08:13:26.743Z,91.08
2019-03-01T08:14:37.084Z,90.98
2019-03-01T08:15:48.397Z,91.27
2019-03-01T08:16:59.295Z,91.65
2019-03-01T08:18:11.209Z,91.46
2019-03-01T08:19:25.832Z,91.55
2019-03-01T08:20:36.443Z,92.5
2019-03-01T08:21:49.883Z,92.5
2019-03-01T08:23:02.438Z,92.03
2019-03-01T08:24:14.281Z,92.22
2019-03-01T08:25:28.496Z,92.79
2019-03-01T08:26:38.772Z,92.6
2019-03-01T08:27:50.973Z,92.79
2019-03-01T08:29:02.303Z,92.41
2019-03-01T08:30:13.669Z,92.89
2019-03-01T08:31:24.433Z,92.32
2019-03-01T08:32:34.552Z,92.6
2019-03-01T08:33:46.102Z,92.89
2019-03-01T08:34:57.188Z,92.32
2019-03-01T08:36:09.705Z,92.6
2019-03-01T08:37:20.170Z,92.98
2019-03-01T08:38:33.351Z,93.32
2019-03-01T08:39:43.670Z,92.74
2019-03-01T08:40:56.977Z,92.65
2019-03-01T08:42:07.093Z,92.84
2019-03-01T08:43:17.204Z,93.03
2019-03-01T08:44:27.315Z,92.55
2019-03-01T08:45:37.184Z,92.55
2019-03-01T08:46:48.832Z,92.84
2019-03-01T08:48:02.011Z,92.46
2019-03-01T08:49:13.762Z,92.84
2019-03-01T08:50:23.889Z,92.84
2019-03-01T08:51:33.997Z,93.03
2019-03-01T08:52:44.125Z,92.17
2019-03-01T08:53:54.306Z,92.79
2019-03-01T08:55:06.879Z,91.88
2019-03-01T08:56:25.772Z,92.5
2019-03-01T08:57:46.423Z,92.22
2019-03-01T08:58:56.838Z,92.22
2019-03-01T09:00:06.944Z,91.74
2019-03-01T09:01:18.032Z,92.08
2019-03-01T09:02:27.527Z,92.03
2019-03-01T09:03:37.660Z,92.12
2019-03-01T09:04:53.523Z,91.93
2019-03-01T09:06:03.643Z,92.12
2019-03-01T09:07:13.491Z,92.12
2019-03-01T09:08:23.640Z,92.12
2019-03-01T09:09:34.334Z,92.22
2019-03-01T09:10:44.464Z,92.69
2019-03-01T09:11:54.618Z,92.6
2019-03-01T09:13:04.727Z,91.88
2019-03-01T09:14:14.848Z,92.5
2019-03-01T09:15:30.045Z,92.41
2019-03-01T09:16:43.583Z,92.79
2019-03-01T09:17:53.701Z,92.69
2019-03-01T09:19:03.813Z,92.79
2019-03-01T09:20:13.931Z,92.69
2019-03-01T09:21:24.565Z,92.88
2019-03-01T09:22:36.224Z,92.88
2019-03-01T09:23:47.838Z,92.6
2019-03-01T09:25:07.125Z,92.03
2019-03-01T09:26:19.883Z,92.32
2019-03-01T09:27:33.413Z,92.32
2019-03-01T09:28:43.576Z,92.12
2019-03-01T09:29:56.129Z,91.83
2019-03-01T09:31:11.598Z,91.83
2019-03-01T09:32:21.723Z,91.93
2019-03-01T09:33:36.500Z,92.12
2019-03-01T09:34:46.664Z,91.27
2019-03-01T09:35:56.777Z,91.74
2019-03-01T09:37:06.924Z,91.74
2019-03-01T09:38:16.694Z,92.03
2019-03-01T09:39:26.551Z,91.55
2019-03-01T09:40:39.337Z,91.36
2019-03-01T09:41:49.446Z,91.17
2019-03-01T09:43:09.453Z,91.03
2019-03-01T09:44:19.565Z,90.74
2019-03-01T09:45:38.520Z,91.03
2019-03-01T09:46:53.243Z,90.84
2019-03-01T09:48:08.636Z,90.93
2019-03-01T09:49:26.531Z,91.03
2019-03-01T09:50:38.321Z,90.93
2019-03-01T09:51:52.270Z,91.03
2019-03-01T09:53:02.451Z,91.41
2019-03-01T09:54:12.814Z,91.41
2019-03-01T09:55:22.968Z,91.41
2019-03-01T09:56:33.079Z,91.31
2019-03-01T09:57:43.222Z,91.31
2019-03-01T09:58:53.365Z,91.31
2019-03-01T10:00:03.496Z,91.79
2019-03-01T10:01:13.649Z,92.08
2019-03-01T10:02:23.789Z,91.98
2019-03-01T10:03:33.918Z,92.08
2019-03-01T10:04:44.078Z,92.08
2019-03-01T10:05:54.213Z,91.88
2019-03-01T10:07:04.329Z,92.08
2019-03-01T10:08:14.453Z,92.55
2019-03-01T10:09:24.595Z,92.46
2019-03-01T10:10:34.757Z,92.65
2019-03-01T10:11:44.919Z,92.46
2019-03-01T10:12:55.034Z,92.93
2019-03-01T10:14:04.924Z,93.32
2019-03-01T10:15:15.043Z,93.03
2019-03-01T10:16:25.179Z,93.6
2019-03-01T10:17:35.348Z,93.6
2019-03-01T10:18:45.479Z,93.7
2019-03-01T10:19:55.632Z,92.98
2019-03-01T10:21:05.771Z,93.17
2019-03-01T10:22:15.908Z,93.98
2019-03-01T10:23:26.046Z,93.7
2019-03-01T10:24:36.201Z,93.74
2019-03-01T10:25:46.317Z,93.12
2019-03-01T10:26:56.453Z,93.32
2019-03-01T10:28:08.108Z,93.27
2019-03-01T10:29:18.218Z,93.27
2019-03-01T10:30:28.351Z,92.69
2019-03-01T10:31:38.471Z,92.89
2019-03-01T10:32:48.597Z,93.03
2019-03-01T10:33:58.719Z,93.32
2019-03-01T10:35:08.856Z,93.27
2019-03-01T10:36:19.012Z,92.89
2019-03-01T10:37:29.161Z,93.17
2019-03-01T10:38:39.289Z,93.17
2019-03-01T10:39:57.629Z,92.6
2019-03-01T10:41:07.754Z,92.5
2019-03-01T10:42:17.879Z,92.5
2019-03-01T10:43:28.015Z,92.89
2019-03-01T10:44:38.185Z,91.94
2019-03-01T10:45:48.331Z,92.03
2019-03-01T10:46:59.603Z,92.5
2019-03-01T10:48:09.796Z,92.22
2019-03-01T10:49:19.930Z,92.03
2019-03-01T10:50:30.044Z,91.65
2019-03-01T10:51:40.153Z,91.98
2019-03-01T10:52:50.315Z,91.22
2019-03-01T10:54:00.456Z,91.22
2019-03-01T10:55:10.570Z,91.41
2019-03-01T10:56:20.718Z,91.22
2019-03-01T10:57:30.855Z,91.46
2019-03-01T10:58:40.979Z,91.13
2019-03-01T10:59:51.124Z,91.41
2019-03-01T11:01:01.244Z,90.93
2019-03-01T11:02:11.403Z,90.74
2019-03-01T11:03:21.536Z,90.45
2019-03-01T11:04:31.689Z,90.79
2019-03-01T11:05:41.958Z,90.89
2019-03-01T11:06:52.151Z,90.7
2019-03-01T11:08:02.324Z,90.79
2019-03-01T11:09:12.430Z,91.08
2019-03-01T11:10:22.581Z,91.65
2019-03-01T11:11:32.708Z,91.08
2019-03-01T11:12:44.306Z,91.17
2019-03-01T11:13:54.440Z,91.27
2019-03-01T11:15:04.556Z,90.98
2019-03-01T11:16:14.411Z,91.36
2019-03-01T11:17:24.751Z,91.17
2019-03-01T11:18:34.858Z,91.08
2019-03-01T11:19:45.001Z,90.98
2019-03-01T11:20:55.112Z,91.08
2019-03-01T11:22:05.213Z,91.36
2019-03-01T11:23:15.337Z,91.08
2019-03-01T11:24:25.488Z,91.08
2019-03-01T11:25:35.623Z,91.27
2019-03-01T11:26:45.754Z,90.89
2019-03-01T11:27:55.862Z,91.17
2019-03-01T11:29:05.964Z,91.17
2019-03-01T11:30:15.833Z,90.7
2019-03-01T11:31:25.973Z,90.6
2019-03-01T11:32:35.821Z,90.79
2019-03-01T11:33:45.950Z,90.03
2019-03-01T11:34:56.075Z,90.22
2019-03-01T11:36:06.261Z,89.98
2019-03-01T11:37:16.415Z,90.08
2019-03-01T11:38:26.521Z,90.36
2019-03-01T11:39:36.630Z,90.45
2019-03-01T11:40:46.760Z,89.89
2019-03-01T11:41:58.900Z,89.79
2019-03-01T11:43:09.023Z,89.4
2019-03-01T11:44:18.834Z,88.84
2019-03-01T11:45:28.972Z,88.74
2019-03-01T11:46:39.109Z,88.21
2019-03-01T11:47:49.248Z,88.07
2019-03-01T11:48:59.388Z,88.07
2019-03-01T11:50:09.161Z,87.88
2019-03-01T11:51:19.040Z,87.98
2019-03-01T11:52:30.771Z,87.88
2019-03-01T11:53:40.894Z,88.07
2019-03-01T11:54:51.021Z,87.88
2019-03-01T11:56:01.179Z,87.98
2019-03-01T11:57:11.312Z,88.07
2019-03-01T11:58:21.435Z,87.88
2019-03-01T11:59:31.295Z,87.88
2019-03-01T12:00:41.444Z,87.88
2019-03-01T12:02:00.254Z,87.98
2019-03-01T12:03:10.383Z,87.5
2019-03-01T12:04:20.976Z,87.69
2019-03-01T12:05:31.133Z,87.6
2019-03-01T12:06:41.253Z,87.5
2019-03-01T12:07:51.430Z,87.5
2019-03-01T12:09:01.560Z,88.17
2019-03-01T12:10:12.410Z,88.17
2019-03-01T12:11:22.636Z,87.69
2019-03-01T12:12:32.748Z,88.07
2019-03-01T12:13:42.888Z,87.21
2019-03-01T12:14:52.993Z,87.21
2019-03-01T12:16:03.279Z,87.02
2019-03-01T12:17:13.430Z,87.46
2019-03-01T12:18:23.574Z,87.4
2019-03-01T12:19:33.702Z,87.4
2019-03-01T12:20:43.861Z,87.46
2019-03-01T12:21:54.015Z,87.12
2019-03-01T12:23:04.126Z,87.31
2019-03-01T12:24:14.263Z,86.65
2019-03-01T12:25:24.372Z,86.79
2019-03-01T12:26:34.518Z,86.6
2019-03-01T12:27:44.683Z,86.69
2019-03-01T12:28:54.817Z,86.69
2019-03-01T12:30:04.949Z,86.69
2019-03-01T12:31:15.072Z,86.98
2019-03-01T12:32:25.193Z,86.79
2019-03-01T12:33:35.383Z,86.88
2019-03-01T12:34:45.524Z,86.79
2019-03-01T12:35:55.679Z,86.32
2019-03-01T12:37:05.804Z,86.51
2019-03-01T12:38:15.957Z,86.22
2019-03-01T12:39:26.077Z,86.79
2019-03-01T12:40:35.848Z,86.79
2019-03-01T12:41:46.017Z,86.6
2019-03-01T12:42:56.124Z,87.17
2019-03-01T12:44:06.244Z,86.6
2019-03-01T12:45:16.356Z,87.36
2019-03-01T12:46:26.503Z,87.17
2019-03-01T12:47:36.630Z,87.17
2019-03-01T12:48:46.755Z,87.17
2019-03-01T12:49:56.977Z,87.17
2019-03-01T12:51:08.046Z,87.17
2019-03-01T12:52:18.190Z,86.94
2019-03-01T12:53:28.345Z,87.23
2019-03-01T12:54:38.479Z,87.23
2019-03-01T12:55:48.586Z,87.13
2019-03-01T12:56:58.724Z,87.23
2019-03-01T12:58:08.600Z,87.51
2019-03-01T12:59:27.222Z,87.13
2019-03-01T13:00:37.357Z,87.13
2019-03-01T13:01:47.469Z,86.94
2019-03-01T13:02:57.611Z,86.55
2019-03-01T13:04:15.568Z,86.55
2019-03-01T13:05:32.523Z,86.94
2019-03-01T13:06:42.651Z,86.84
2019-03-01T13:07:54.385Z,87.13
2019-03-01T13:09:04.667Z,86.65
2019-03-01T13:10:14.888Z,87.03
2019-03-01T13:11:25.029Z,87.23
2019-03-01T13:12:35.134Z,86.84
2019-03-01T13:13:45.278Z,86.65
2019-03-01T13:14:55.391Z,86.94
2019-03-01T13:16:05.676Z,86.75
2019-03-01T13:17:15.835Z,86.84
2019-03-01T13:18:25.952Z,86.94
2019-03-01T13:19:36.112Z,86.65
2019-03-01T13:20:46.250Z,86.94
2019-03-01T13:21:56.369Z,86.55
2019-03-01T13:23:08.245Z,86.94
2019-03-01T13:24:19.309Z,86.94
2019-03-01T13:25:32.583Z,86.65
2019-03-01T13:26:43.395Z,86.46
2019-03-01T13:27:55.937Z,86.55
2019-03-01T13:29:06.073Z,86.08
2019-03-01T13:30:16.210Z,86.75
2019-03-01T13:31:26.356Z,86.18
2019-03-01T13:32:36.493Z,86.27
2019-03-01T13:33:46.628Z,86.27
2019-03-01T13:34:56.259Z,86.18
2019-03-01T13:36:07.136Z,86.36
2019-03-01T13:37:22.745Z,85.8
2019-03-01T13:38:36.220Z,85.7
2019-03-01T13:39:48.568Z,85.51
2019-03-01T13:41:02.046Z,85.6
2019-03-01T13:42:15.958Z,85.8
2019-03-01T13:43:27.341Z,85.32
2019-03-01T13:44:42.225Z,85.32
2019-03-01T13:45:55.805Z,84.84
2019-03-01T13:47:11.817Z,85.13
2019-03-01T13:48:22.378Z,84.94
2019-03-01T13:49:32.937Z,84.94
2019-03-01T13:50:44.804Z,84.65
2019-03-01T13:51:56.315Z,84.94
2019-03-01T13:53:06.629Z,85.03
2019-03-01T13:54:16.789Z,84.84
2019-03-01T13:55:30.199Z,84.84
2019-03-01T13:56:40.318Z,85.13
2019-03-01T13:57:53.438Z,85.13
2019-03-01T13:59:06.264Z,85.22
2019-03-01T14:00:16.421Z,84.94
2019-03-01T14:01:29.645Z,85.32
2019-03-01T14:02:42.990Z,85.13
2019-03-01T14:03:55.434Z,85.13
2019-03-01T14:05:16.908Z,84.8
2019-03-01T14:06:27.350Z,85.75
2019-03-01T14:07:37.454Z,85.08
2019-03-01T14:08:47.244Z,85.56
2019-03-01T14:09:57.417Z,85.47
2019-03-01T14:11:15.047Z,85.47
2019-03-01T14:12:28.932Z,85.85
2019-03-01T14:13:43.227Z,86.32
2019-03-01T14:15:02.723Z,86.32
2019-03-01T14:16:16.954Z,86.42
2019-03-01T14:17:30.109Z,86.22
2019-03-01T14:18:40.435Z,86.42
2019-03-01T14:19:50.546Z,86.32
2019-03-01T14:21:01.658Z,86.32
2019-03-01T14:22:15.690Z,86.8
2019-03-01T14:23:27.534Z,87.46
2019-03-01T14:24:37.691Z,86.9
2019-03-01T14:25:47.820Z,87.37
2019-03-01T14:27:01.678Z,87.08
2019-03-01T14:28:11.577Z,87.37
2019-03-01T14:29:21.792Z,86.8
2019-03-01T14:30:35.604Z,87.27
2019-03-01T14:31:46.305Z,87.32
2019-03-01T14:32:59.963Z,87.32
2019-03-01T14:34:11.493Z,87.99
2019-03-01T14:35:26.786Z,87.99
2019-03-01T14:36:39.791Z,88.56
2019-03-01T14:37:56.769Z,88.46
2019-03-01T14:39:10.142Z,88.85
2019-03-01T14:40:22.449Z,88.94
2019-03-01T14:41:36.788Z,89.14
2019-03-01T14:42:50.045Z,88.85
2019-03-01T14:44:02.244Z,89.23
2019-03-01T14:45:13.380Z,88.94
2019-03-01T14:46:24.629Z,88.28
2019-03-01T14:47:35.318Z,88.42
2019-03-01T14:48:48.589Z,88.46
2019-03-01T14:50:01.007Z,88.7
2019-03-01T14:51:14.050Z,89.04
2019-03-01T14:52:24.712Z,89.14
2019-03-01T14:53:38.157Z,89.04
2019-03-01T14:54:48.367Z,88.66
2019-03-01T14:56:02.112Z,88.66
2019-03-01T14:57:13.155Z,89.04
2019-03-01T14:58:26.010Z,88.28
2019-03-01T14:59:40.605Z,88.56
2019-03-01T15:00:53.541Z,88.66
2019-03-01T15:02:05.733Z,88.66
2019-03-01T15:03:20.036Z,88.46
2019-03-01T15:04:32.098Z,88.46
2019-03-01T15:05:45.277Z,88.46
2019-03-01T15:06:57.634Z,87.99
2019-03-01T15:08:09.946Z,87.71
2019-03-01T15:09:23.207Z,87.52
2019-03-01T15:10:35.504Z,87.52
2019-03-01T15:11:48.840Z,87.71
2019-03-01T15:13:01.135Z,87.8
2019-03-01T15:14:16.075Z,86.76